createdAt,value
2023-01-09T00:00:22.057Z,8.00
2023-01-09T00:02:45.772Z,8.00
2023-01-09T00:05:09.873Z,7.90
2023-01-09T00:07:33.227Z,8.00
2023-01-09T00:09:56.453Z,7.90
2023-01-09T00:12:20.405Z,7.90
2023-01-09T00:14:43.721Z,7.90
2023-01-09T00:17:08.527Z,7.90
2023-01-09T00:19:31.896Z,7.80
2023-01-09T00:21:55.108Z,7.90
2023-01-09T00:24:18.647Z,7.80
2023-01-09T00:26:41.890Z,7.80
2023-01-09T00:29:06.336Z,7.80
2023-01-09T00:31:30.081Z,7.80
2023-01-09T00:34:00.376Z,7.70
2023-01-09T00:36:23.749Z,7.70
2023-01-09T00:38:47.061Z,7.70
2023-01-09T00:41:15.348Z,7.60
2023-01-09T00:43:45.095Z,7.60
2023-01-09T00:46:09.096Z,7.60
2023-01-09T00:48:34.780Z,7.60
2023-01-09T00:51:00.864Z,7.50
2023-01-09T00:53:27.247Z,7.50
2023-01-09T00:55:51.285Z,7.50
2023-01-09T00:58:14.975Z,7.50
2023-01-09T01:00:38.293Z,7.50
2023-01-09T01:03:01.760Z,7.50
2023-01-09T01:05:39.324Z,7.50
2023-01-09T01:08:04.021Z,7.50
2023-01-09T01:10:28.279Z,7.40
2023-01-09T01:12:52.789Z,7.50
2023-01-09T01:15:17.603Z,7.40
2023-01-09T01:17:42.224Z,7.40
2023-01-09T01:20:08.822Z,7.40
2023-01-09T01:22:32.494Z,7.30
2023-01-09T01:24:57.215Z,7.30
2023-01-09T01:27:20.487Z,7.30
2023-01-09T01:29:43.750Z,7.30
2023-01-09T01:32:07.966Z,7.50
2023-01-09T01:34:31.805Z,7.50
2023-01-09T01:36:55.140Z,7.50
2023-01-09T01:39:18.406Z,7.50
2023-01-09T01:41:43.200Z,7.40
2023-01-09T01:44:28.431Z,7.40
2023-01-09T01:46:55.156Z,7.40
2023-01-09T01:49:20.482Z,7.30
2023-01-09T01:51:49.165Z,7.30
2023-01-09T01:54:19.220Z,7.30
2023-01-09T01:56:46.477Z,7.30
2023-01-09T01:59:13.116Z,7.20
2023-01-09T02:01:41.234Z,7.10
2023-01-09T02:04:05.490Z,7.00
2023-01-09T02:06:29.528Z,7.10
2023-01-09T02:08:53.103Z,7.20
2023-01-09T02:11:18.939Z,7.20
2023-01-09T02:13:43.976Z,7.00
2023-01-09T02:16:31.874Z,7.00
2023-01-09T02:19:06.073Z,7.00
2023-01-09T02:21:45.908Z,7.00
2023-01-09T02:24:42.216Z,7.00
2023-01-09T02:28:08.919Z,7.00
2023-01-09T02:30:41.924Z,7.00
2023-01-09T02:33:21.945Z,6.80
2023-01-09T02:36:02.122Z,6.80
2023-01-09T02:38:30.894Z,6.80
2023-01-09T02:41:01.435Z,6.80
2023-01-09T02:43:25.858Z,6.90
2023-01-09T02:45:50.515Z,6.90
2023-01-09T02:48:14.623Z,6.80
2023-01-09T02:50:47.316Z,7.00
2023-01-09T02:53:49.787Z,6.90
2023-01-09T02:56:31.013Z,7.00
2023-01-09T02:59:19.455Z,6.90
2023-01-09T03:01:57.530Z,6.80
2023-01-09T03:04:28.063Z,6.80
2023-01-09T03:06:59.982Z,6.80
2023-01-09T03:09:28.569Z,6.80
2023-01-09T03:11:56.856Z,6.80
2023-01-09T03:14:25.265Z,6.80
2023-01-09T03:16:57.161Z,6.80
2023-01-09T03:19:26.510Z,6.70
2023-01-09T03:21:51.381Z,6.70
2023-01-09T03:24:14.941Z,6.50
2023-01-09T03:26:38.458Z,6.70
2023-01-09T03:29:01.837Z,6.50
2023-01-09T03:31:25.163Z,6.50
2023-01-09T03:33:50.030Z,6.50
2023-01-09T03:36:16.501Z,6.60
2023-01-09T03:38:39.905Z,6.50
2023-01-09T03:41:03.483Z,6.40
2023-01-09T03:43:26.740Z,6.40
2023-01-09T03:45:50.105Z,6.40
2023-01-09T03:48:13.355Z,6.40
2023-01-09T03:50:37.985Z,6.30
2023-01-09T03:53:01.253Z,6.20
2023-01-09T03:55:24.557Z,6.10
2023-01-09T03:57:47.932Z,6.10
2023-01-09T04:00:13.126Z,6.00
2023-01-09T04:02:36.385Z,6.00
2023-01-09T04:04:59.664Z,6.00
2023-01-09T04:07:24.321Z,6.00
2023-01-09T04:09:47.629Z,6.10
2023-01-09T04:12:10.877Z,6.00
2023-01-09T04:14:34.584Z,5.90
2023-01-09T04:16:57.820Z,6.00
2023-01-09T04:19:21.301Z,5.90
2023-01-09T04:21:44.631Z,5.90
2023-01-09T04:24:09.851Z,5.80
2023-01-09T04:26:33.515Z,5.80
2023-01-09T04:28:56.903Z,5.70
2023-01-09T04:31:20.343Z,5.70
2023-01-09T04:33:43.706Z,5.70
2023-01-09T04:36:08.139Z,5.70
2023-01-09T04:38:31.456Z,5.70
2023-01-09T04:40:56.062Z,5.70
2023-01-09T04:43:19.933Z,5.50
2023-01-09T04:45:43.279Z,5.50
2023-01-09T04:48:07.603Z,5.50
2023-01-09T04:50:31.489Z,5.60
2023-01-09T04:52:54.813Z,5.60
2023-01-09T04:55:18.302Z,5.70
2023-01-09T04:57:43.066Z,5.80
2023-01-09T05:00:09.781Z,5.80
2023-01-09T05:02:33.179Z,5.90
2023-01-09T05:04:56.918Z,5.90
2023-01-09T05:07:20.170Z,5.90
2023-01-09T05:09:44.628Z,5.90
2023-01-09T05:12:08.404Z,5.90
2023-01-09T05:14:33.131Z,5.90
2023-01-09T05:16:57.507Z,6.00
2023-01-09T05:19:21.607Z,6.00
2023-01-09T05:21:44.847Z,6.20
2023-01-09T05:24:08.925Z,6.00
2023-01-09T05:26:32.230Z,6.10
2023-01-09T05:28:57.286Z,6.30
2023-01-09T05:31:22.330Z,6.20
2023-01-09T05:33:45.758Z,6.20
2023-01-09T05:36:09.649Z,6.30
2023-01-09T05:38:32.899Z,6.30
2023-01-09T05:40:56.238Z,6.50
2023-01-09T05:43:19.745Z,6.50
2023-01-09T05:45:43.134Z,6.40
2023-01-09T05:48:08.508Z,6.50
2023-01-09T05:50:31.806Z,6.50
2023-01-09T05:52:55.054Z,6.50
2023-01-09T05:55:19.567Z,6.50
2023-01-09T05:57:42.945Z,6.50
2023-01-09T06:00:08.042Z,6.50
2023-01-09T06:02:31.483Z,6.50
2023-01-09T06:04:56.156Z,6.50
2023-01-09T06:07:22.099Z,6.60
2023-01-09T06:09:46.642Z,6.50
2023-01-09T06:12:09.857Z,6.60
2023-01-09T06:14:33.161Z,6.60
2023-01-09T06:16:56.463Z,6.50
2023-01-09T06:19:19.963Z,6.50
2023-01-09T06:21:44.610Z,6.60
2023-01-09T06:24:08.835Z,6.60
2023-01-09T06:26:32.592Z,6.60
2023-01-09T06:28:56.639Z,6.60
2023-01-09T06:31:19.991Z,6.60
2023-01-09T06:33:43.234Z,6.70
2023-01-09T06:36:07.375Z,6.80
2023-01-09T06:38:32.011Z,6.80
2023-01-09T06:40:55.381Z,6.70
2023-01-09T06:43:18.641Z,6.80
2023-01-09T06:45:43.675Z,6.70
2023-01-09T06:48:07.478Z,6.80
2023-01-09T06:50:30.771Z,6.90
2023-01-09T06:52:54.079Z,6.90
2023-01-09T06:55:19.108Z,7.00
2023-01-09T06:57:42.348Z,6.90
2023-01-09T07:00:07.205Z,6.90
2023-01-09T07:02:30.551Z,7.10
2023-01-09T07:04:53.816Z,7.00
2023-01-09T07:07:17.108Z,7.00
2023-01-09T07:09:40.599Z,7.00
2023-01-09T07:12:05.475Z,7.10
2023-01-09T07:14:28.806Z,7.10
2023-01-09T07:16:52.069Z,7.10
2023-01-09T07:19:15.757Z,7.10
2023-01-09T07:21:39.047Z,7.00
2023-01-09T07:24:02.359Z,7.10
2023-01-09T07:26:25.687Z,7.20
2023-01-09T07:28:50.397Z,7.20
2023-01-09T07:31:13.776Z,7.10
2023-01-09T07:33:37.345Z,7.10
2023-01-09T07:36:00.774Z,7.20
2023-01-09T07:38:24.121Z,7.10
2023-01-09T07:40:47.513Z,7.10
2023-01-09T07:43:10.846Z,7.10
2023-01-09T07:45:35.447Z,7.00
2023-01-09T07:47:58.714Z,7.00
2023-01-09T07:50:22.062Z,7.00
2023-01-09T07:52:46.810Z,7.00
2023-01-09T07:55:11.813Z,7.00
2023-01-09T07:57:35.307Z,7.00
2023-01-09T08:00:00.520Z,7.00
2023-01-09T08:02:25.484Z,7.00
2023-01-09T08:04:48.841Z,7.10
2023-01-09T08:07:12.131Z,7.20
2023-01-09T08:09:35.492Z,7.10
2023-01-09T08:11:58.753Z,7.30
2023-01-09T08:14:22.028Z,7.30
2023-01-09T08:16:45.225Z,7.20
2023-01-09T08:19:12.074Z,7.30
2023-01-09T08:21:35.380Z,7.30
2023-01-09T08:23:58.698Z,7.40
2023-01-09T08:26:21.971Z,7.40
2023-01-09T08:28:45.444Z,7.30
2023-01-09T08:31:09.361Z,7.40
2023-01-09T08:33:32.821Z,7.40
2023-01-09T08:35:57.477Z,7.40
2023-01-09T08:38:21.989Z,7.50
2023-01-09T08:40:48.124Z,7.50
2023-01-09T08:43:29.081Z,7.60
2023-01-09T08:46:10.551Z,7.50
2023-01-09T08:48:33.863Z,7.60
2023-01-09T08:50:58.513Z,7.60
2023-01-09T08:53:21.811Z,7.50
2023-01-09T08:55:45.073Z,7.60
2023-01-09T08:58:08.874Z,7.50
2023-01-09T09:00:32.268Z,7.70
2023-01-09T09:02:58.536Z,7.60
2023-01-09T09:05:23.121Z,7.60
2023-01-09T09:07:49.931Z,7.70
2023-01-09T09:10:13.224Z,7.70
2023-01-09T09:12:36.950Z,7.70
2023-01-09T09:15:16.519Z,7.90
2023-01-09T09:17:41.148Z,7.90
2023-01-09T09:20:04.847Z,7.80
2023-01-09T09:22:28.468Z,7.90
2023-01-09T09:24:53.202Z,7.90
2023-01-09T09:27:16.511Z,8.00
2023-01-09T09:29:39.815Z,7.90
2023-01-09T09:32:03.145Z,8.00
2023-01-09T09:34:26.379Z,8.00
2023-01-09T09:36:49.696Z,8.10
2023-01-09T09:39:13.126Z,8.10
2023-01-09T09:42:27.723Z,8.20
2023-01-09T09:45:08.358Z,8.10
2023-01-09T09:47:45.021Z,8.10
2023-01-09T09:50:33.103Z,8.00
2023-01-09T09:53:09.518Z,8.10
2023-01-09T09:55:36.130Z,8.20
2023-01-09T09:58:04.677Z,8.20
2023-01-09T10:00:29.122Z,8.30
2023-01-09T10:02:57.873Z,8.20
2023-01-09T10:05:27.011Z,8.20
2023-01-09T10:07:52.226Z,8.20
2023-01-09T10:10:21.646Z,8.30
2023-01-09T10:12:53.351Z,8.30
2023-01-09T10:15:20.989Z,8.40
2023-01-09T10:17:59.749Z,8.30
2023-01-09T10:20:50.680Z,8.30
2023-01-09T10:23:32.740Z,8.30
2023-01-09T10:26:02.201Z,8.30
2023-01-09T10:28:46.570Z,8.30
2023-01-09T10:31:18.347Z,8.40
2023-01-09T10:33:55.803Z,8.40
2023-01-09T10:37:02.091Z,8.30
2023-01-09T10:39:30.432Z,8.30
2023-01-09T10:42:00.693Z,8.30
2023-01-09T10:44:33.255Z,8.40
2023-01-09T10:46:59.302Z,8.40
2023-01-09T10:49:25.028Z,8.50
2023-01-09T10:51:50.401Z,8.50
2023-01-09T10:54:18.502Z,8.60
2023-01-09T10:56:47.253Z,8.60
2023-01-09T10:59:11.283Z,8.60
2023-01-09T11:01:39.283Z,8.60
2023-01-09T11:04:04.266Z,8.60
2023-01-09T11:06:41.675Z,8.60
2023-01-09T11:09:07.480Z,8.60
2023-01-09T11:11:36.772Z,8.60
2023-01-09T11:14:08.469Z,8.60
2023-01-09T11:16:31.813Z,8.50
2023-01-09T11:18:58.678Z,8.60
2023-01-09T11:21:35.695Z,8.50
2023-01-09T11:24:28.840Z,8.50
2023-01-09T11:26:55.151Z,8.50
2023-01-09T11:29:20.808Z,8.50
2023-01-09T11:31:53.986Z,8.40
2023-01-09T11:34:18.840Z,8.50
2023-01-09T11:36:43.681Z,8.50
2023-01-09T11:39:07.121Z,8.50
2023-01-09T11:41:34.544Z,8.50
2023-01-09T11:44:01.109Z,8.40
2023-01-09T11:46:38.359Z,8.50
2023-01-09T11:49:03.248Z,8.50
2023-01-09T11:51:29.396Z,8.50
2023-01-09T11:54:19.580Z,8.50
2023-01-09T11:56:43.188Z,8.50
2023-01-09T11:59:13.134Z,8.60
2023-01-09T12:02:06.131Z,8.50
2023-01-09T12:04:37.027Z,8.50
2023-01-09T12:07:19.096Z,8.50
2023-01-09T12:09:52.992Z,8.50
2023-01-09T12:12:29.134Z,8.40
2023-01-09T12:15:09.844Z,8.40
2023-01-09T12:18:00.426Z,8.30
2023-01-09T12:20:46.605Z,8.30
2023-01-09T12:23:25.714Z,8.30
2023-01-09T12:26:03.609Z,8.30
2023-01-09T12:28:59.361Z,8.20
2023-01-09T12:31:37.523Z,8.10
2023-01-09T12:34:22.696Z,8.10
2023-01-09T12:37:01.701Z,8.10
2023-01-09T12:39:36.512Z,8.00
2023-01-09T12:42:28.587Z,7.90
2023-01-09T12:44:56.656Z,7.80
2023-01-09T12:47:48.639Z,7.70
2023-01-09T12:50:51.333Z,7.60
2023-01-09T12:53:23.397Z,7.60
2023-01-09T12:55:52.582Z,7.70
2023-01-09T12:58:30.741Z,7.80
2023-01-09T13:00:56.864Z,7.90
2023-01-09T13:03:27.560Z,7.90
2023-01-09T13:05:53.359Z,8.00
2023-01-09T13:08:22.940Z,7.90
2023-01-09T13:10:50.000Z,8.00
2023-01-09T13:13:21.666Z,8.00
2023-01-09T13:15:49.094Z,8.00
2023-01-09T13:18:18.252Z,7.90
2023-01-09T13:20:46.707Z,7.80
2023-01-09T13:23:18.589Z,7.80
2023-01-09T13:25:44.841Z,7.80
2023-01-09T13:28:19.637Z,7.80
2023-01-09T13:31:02.084Z,7.90
2023-01-09T13:33:29.249Z,7.90
2023-01-09T13:35:55.132Z,7.90
2023-01-09T13:38:21.764Z,7.90
2023-01-09T13:40:45.524Z,8.00
2023-01-09T13:43:10.023Z,8.00
2023-01-09T13:45:37.577Z,8.00
2023-01-09T13:48:33.329Z,8.00
2023-01-09T13:51:56.810Z,8.00
2023-01-09T13:55:21.407Z,8.00
2023-01-09T13:57:48.088Z,8.00
2023-01-09T14:00:50.038Z,8.00
2023-01-09T14:03:22.127Z,8.00
2023-01-09T14:06:13.388Z,7.90
2023-01-09T14:08:38.165Z,7.80
2023-01-09T14:11:03.414Z,7.80
2023-01-09T14:13:30.145Z,7.80
2023-01-09T14:16:02.303Z,7.80
2023-01-09T14:18:29.223Z,7.80
2023-01-09T14:20:58.700Z,7.80
2023-01-09T14:23:50.230Z,7.80
2023-01-09T14:26:18.963Z,7.80
2023-01-09T14:28:42.163Z,7.80
2023-01-09T14:31:10.309Z,7.90
2023-01-09T14:33:35.055Z,7.90
2023-01-09T14:36:10.055Z,8.00
2023-01-09T14:38:35.997Z,8.00
2023-01-09T14:41:05.793Z,8.00
2023-01-09T14:43:45.815Z,8.00
2023-01-09T14:46:15.944Z,8.10
2023-01-09T14:48:53.355Z,8.00
2023-01-09T14:51:18.769Z,8.00
2023-01-09T14:53:42.581Z,8.00
2023-01-09T14:56:08.412Z,8.00
2023-01-09T14:58:34.461Z,8.00
2023-01-09T15:01:02.861Z,8.00
2023-01-09T15:03:32.476Z,8.00
2023-01-09T15:05:55.918Z,8.00
2023-01-09T15:08:23.914Z,8.00
2023-01-09T15:10:49.404Z,8.00
2023-01-09T15:13:18.733Z,8.00
2023-01-09T15:15:48.072Z,8.00
2023-01-09T15:18:11.617Z,8.00
2023-01-09T15:20:36.091Z,8.00
2023-01-09T15:23:01.651Z,8.00
2023-01-09T15:25:38.155Z,8.00
2023-01-09T15:28:18.084Z,8.00
2023-01-09T15:30:43.330Z,8.00
2023-01-09T15:33:16.519Z,8.00
2023-01-09T15:35:43.827Z,7.90
2023-01-09T15:38:07.394Z,7.90
2023-01-09T15:40:35.524Z,7.90
2023-01-09T15:42:58.611Z,7.90
2023-01-09T15:45:26.764Z,7.80
2023-01-09T15:47:50.270Z,7.80
2023-01-09T15:50:17.570Z,7.80
2023-01-09T15:52:40.926Z,7.70
2023-01-09T15:55:04.476Z,7.70
2023-01-09T15:57:34.135Z,7.70
2023-01-09T16:00:33.266Z,7.60
2023-01-09T16:03:12.146Z,7.70
2023-01-09T16:05:42.043Z,7.60
2023-01-09T16:08:06.051Z,7.70
2023-01-09T16:10:34.993Z,7.80
2023-01-09T16:12:59.351Z,7.70
2023-01-09T16:15:22.758Z,7.70
2023-01-09T16:18:08.424Z,7.80
2023-01-09T16:20:31.948Z,7.80
2023-01-09T16:22:58.224Z,7.70
2023-01-09T16:25:30.030Z,7.70
2023-01-09T16:28:10.821Z,7.80
2023-01-09T16:30:34.357Z,7.70
2023-01-09T16:32:57.796Z,7.60
2023-01-09T16:35:23.781Z,7.60
2023-01-09T16:37:47.202Z,7.50
2023-01-09T16:40:36.084Z,7.50
2023-01-09T16:43:01.110Z,7.50
2023-01-09T16:45:27.148Z,7.50
2023-01-09T16:47:50.513Z,7.50
2023-01-09T16:50:15.204Z,7.30
2023-01-09T16:52:38.575Z,7.30
2023-01-09T16:55:01.839Z,7.20
2023-01-09T16:57:26.741Z,7.20
2023-01-09T16:59:50.295Z,7.20
2023-01-09T17:02:19.798Z,7.10
2023-01-09T17:04:43.003Z,7.10
2023-01-09T17:07:06.307Z,7.10
2023-01-09T17:09:29.487Z,7.10
2023-01-09T17:11:53.432Z,7.10
2023-01-09T17:14:18.183Z,7.00
2023-01-09T17:16:43.348Z,7.10
2023-01-09T17:19:06.920Z,7.10
2023-01-09T17:21:30.910Z,7.10
2023-01-09T17:24:08.460Z,7.00
2023-01-09T17:26:49.903Z,7.00
2023-01-09T17:29:13.422Z,7.00
2023-01-09T17:31:38.773Z,7.00
2023-01-09T17:34:02.284Z,7.10
2023-01-09T17:36:31.983Z,7.00
2023-01-09T17:38:55.812Z,7.00
2023-01-09T17:41:19.499Z,7.00
2023-01-09T17:43:45.023Z,6.90
2023-01-09T17:46:16.814Z,6.90
2023-01-09T17:48:41.578Z,6.90
2023-01-09T17:51:05.740Z,6.90
2023-01-09T17:53:30.037Z,6.90
2023-01-09T17:55:53.514Z,6.90
2023-01-09T17:58:26.769Z,6.90
2023-01-09T18:00:50.027Z,6.90
2023-01-09T18:03:13.365Z,6.80
2023-01-09T18:05:37.987Z,6.70
2023-01-09T18:08:01.701Z,6.80
2023-01-09T18:10:27.451Z,6.80
2023-01-09T18:12:51.280Z,6.70
2023-01-09T18:15:15.040Z,6.70
2023-01-09T18:17:38.489Z,6.70
2023-01-09T18:20:01.781Z,6.60
2023-01-09T18:22:26.811Z,6.60
2023-01-09T18:24:50.221Z,6.70
2023-01-09T18:27:13.646Z,6.60
2023-01-09T18:29:36.864Z,6.60
2023-01-09T18:32:00.306Z,6.50
2023-01-09T18:34:23.613Z,6.50
2023-01-09T18:36:47.258Z,6.50
2023-01-09T18:39:13.430Z,6.50
2023-01-09T18:41:37.025Z,6.50
2023-01-09T18:44:02.390Z,6.50
2023-01-09T18:46:30.500Z,6.50
2023-01-09T18:48:55.062Z,6.50
2023-01-09T18:51:18.380Z,6.50
2023-01-09T18:53:41.799Z,6.50
2023-01-09T18:56:07.148Z,6.50
2023-01-09T18:58:30.415Z,6.50
2023-01-09T19:00:56.217Z,6.50
2023-01-09T19:03:19.537Z,6.50
2023-01-09T19:05:42.999Z,6.50
2023-01-09T19:08:07.429Z,6.50
2023-01-09T19:10:30.751Z,6.50
2023-01-09T19:12:55.703Z,6.50
2023-01-09T19:15:19.162Z,6.50
2023-01-09T19:17:42.748Z,6.50
2023-01-09T19:20:08.260Z,6.40
2023-01-09T19:22:31.783Z,6.40
2023-01-09T19:24:55.423Z,6.40
2023-01-09T19:27:18.752Z,6.50
2023-01-09T19:29:43.538Z,6.40
2023-01-09T19:32:08.499Z,6.40
2023-01-09T19:34:31.909Z,6.50
2023-01-09T19:36:55.277Z,6.50
2023-01-09T19:39:18.694Z,6.60
2023-01-09T19:41:42.102Z,6.50
2023-01-09T19:44:05.925Z,6.50
2023-01-09T19:46:33.481Z,6.50
2023-01-09T19:48:58.958Z,6.60
2023-01-09T19:51:24.812Z,6.60
2023-01-09T19:53:53.731Z,6.60
2023-01-09T19:56:19.512Z,6.60
2023-01-09T19:58:44.693Z,6.60
2023-01-09T20:01:11.793Z,6.60
2023-01-09T20:03:37.910Z,6.70
2023-01-09T20:06:05.503Z,6.70
2023-01-09T20:08:28.794Z,6.70
2023-01-09T20:10:52.657Z,6.80
2023-01-09T20:13:15.881Z,6.70
2023-01-09T20:15:40.532Z,6.70
2023-01-09T20:18:04.229Z,6.60
2023-01-09T20:20:29.133Z,6.60
2023-01-09T20:22:52.552Z,6.60
2023-01-09T20:25:16.121Z,6.50
2023-01-09T20:27:39.400Z,6.50
2023-01-09T20:30:02.758Z,6.50
2023-01-09T20:32:26.008Z,6.50
2023-01-09T20:34:49.266Z,6.40
2023-01-09T20:37:14.182Z,6.40
2023-01-09T20:39:37.916Z,6.50
2023-01-09T20:42:01.511Z,6.40
2023-01-09T20:44:25.023Z,6.40
2023-01-09T20:46:48.501Z,6.30
2023-01-09T20:49:14.910Z,6.30
2023-01-09T20:51:42.942Z,6.30
2023-01-09T20:54:07.729Z,6.30
2023-01-09T20:56:32.686Z,6.20
2023-01-09T20:58:56.952Z,6.20
2023-01-09T21:01:20.832Z,6.20
2023-01-09T21:03:44.229Z,6.20
2023-01-09T21:06:09.243Z,6.20
2023-01-09T21:08:32.570Z,6.20
2023-01-09T21:10:59.008Z,6.30
2023-01-09T21:13:22.296Z,6.30
2023-01-09T21:15:45.740Z,6.40
2023-01-09T21:18:09.055Z,6.30
2023-01-09T21:20:32.292Z,6.40
2023-01-09T21:22:55.656Z,6.30
2023-01-09T21:25:19.053Z,6.40
2023-01-09T21:27:45.975Z,6.30
2023-01-09T21:30:11.249Z,6.20
2023-01-09T21:32:34.656Z,6.30
2023-01-09T21:35:03.142Z,6.20
2023-01-09T21:37:26.546Z,6.20
2023-01-09T21:39:49.916Z,6.30
2023-01-09T21:42:30.969Z,6.30
2023-01-09T21:45:13.166Z,6.30
2023-01-09T21:47:36.822Z,6.30
2023-01-09T21:50:00.119Z,6.30
2023-01-09T21:52:23.475Z,6.30
2023-01-09T21:54:47.136Z,6.20
2023-01-09T21:57:10.647Z,6.20
2023-01-09T21:59:34.289Z,6.20
2023-01-09T22:01:59.560Z,6.20
2023-01-09T22:04:28.919Z,6.10
2023-01-09T22:06:52.656Z,6.10
2023-01-09T22:09:16.413Z,6.10
2023-01-09T22:11:40.191Z,6.10
2023-01-09T22:14:03.500Z,6.10
2023-01-09T22:16:27.321Z,6.10
2023-01-09T22:18:53.140Z,6.10
2023-01-09T22:21:17.526Z,6.20
2023-01-09T22:23:45.441Z,6.10
2023-01-09T22:26:10.461Z,6.10
2023-01-09T22:28:33.798Z,6.00
2023-01-09T22:30:57.083Z,6.00
2023-01-09T22:33:20.482Z,6.00
2023-01-09T22:35:45.356Z,6.00
2023-01-09T22:38:09.224Z,5.90
2023-01-09T22:40:32.928Z,5.90
2023-01-09T22:42:56.501Z,5.90
2023-01-09T22:45:19.912Z,5.80
2023-01-09T22:47:43.251Z,5.80
2023-01-09T22:50:08.375Z,5.80
2023-01-09T22:52:32.989Z,5.70
2023-01-09T22:54:56.339Z,5.70
2023-01-09T22:57:19.563Z,5.70
2023-01-09T22:59:42.871Z,5.70
2023-01-09T23:02:06.437Z,5.70
2023-01-09T23:04:29.702Z,5.60
2023-01-09T23:06:52.938Z,5.70
2023-01-09T23:09:18.117Z,5.70
2023-01-09T23:11:58.907Z,5.70
2023-01-09T23:14:23.289Z,5.70
2023-01-09T23:16:46.745Z,5.60
2023-01-09T23:19:12.896Z,5.60
2023-01-09T23:21:36.389Z,5.60
2023-01-09T23:23:59.695Z,5.60
2023-01-09T23:26:24.332Z,5.60
2023-01-09T23:28:47.598Z,5.60
2023-01-09T23:31:10.895Z,5.50
2023-01-09T23:33:34.167Z,5.60
2023-01-09T23:35:57.422Z,5.60
2023-01-09T23:38:20.854Z,5.60
2023-01-09T23:40:44.519Z,5.60
2023-01-09T23:43:10.294Z,5.50
2023-01-09T23:45:34.915Z,5.60
2023-01-09T23:47:58.204Z,5.60
2023-01-09T23:50:21.536Z,5.60
2023-01-09T23:52:45.285Z,5.50
2023-01-09T23:55:10.955Z,5.40
2023-01-09T23:57:34.363Z,5.50
2023-01-09T23:59:59.311Z,5.50
